createdAt,value
2023-02-15T00:01:12.459Z,36.93
2023-02-15T00:03:41.006Z,37.30
2023-02-15T00:06:09.065Z,38.92
2023-02-15T00:08:37.599Z,38.15
2023-02-15T00:11:09.107Z,37.63
2023-02-15T00:13:37.499Z,35.60
2023-02-15T00:16:11.286Z,36.38
2023-02-15T00:18:40.746Z,37.50
2023-02-15T00:21:11.335Z,38.60
2023-02-15T00:23:59.914Z,39.08
2023-02-15T00:26:28.360Z,39.30
2023-02-15T00:28:56.944Z,39.18
2023-02-15T00:31:25.589Z,38.08
2023-02-15T00:33:53.437Z,36.23
2023-02-15T00:36:22.378Z,40.88
2023-02-15T00:38:50.660Z,38.83
2023-02-15T00:41:18.933Z,40.70
2023-02-15T00:43:48.280Z,39.67
2023-02-15T00:46:16.615Z,40.65
2023-02-15T00:48:45.304Z,41.37
2023-02-15T00:51:13.009Z,40.35
2023-02-15T00:53:40.934Z,40.33
2023-02-15T00:56:09.933Z,38.13
2023-02-15T00:58:38.398Z,37.75
2023-02-15T01:01:09.390Z,34.73
2023-02-15T01:03:57.494Z,34.30
2023-02-15T02:32:41.459Z,32.88
2023-02-15T02:35:26.115Z,31.42
2023-02-15T02:38:17.981Z,32.60
2023-02-15T02:41:05.438Z,31.65
2023-02-15T02:43:46.652Z,31.68
2023-02-15T02:46:21.813Z,30.37
2023-02-15T02:51:38.971Z,32.33
2023-02-15T02:54:08.681Z,33.42
2023-02-15T02:56:40.589Z,36.25
2023-02-15T02:59:15.493Z,31.90
2023-02-15T03:01:47.459Z,34.53
2023-02-15T03:04:20.137Z,33.83
2023-02-15T03:07:09.180Z,32.15
2023-02-15T03:09:43.333Z,31.57
2023-02-15T03:12:16.166Z,32.50
2023-02-15T03:15:08.921Z,29.10
2023-02-15T03:17:41.561Z,26.55
2023-02-15T03:20:18.608Z,25.25
2023-02-15T03:22:52.811Z,24.57
2023-02-15T03:25:23.976Z,24.87
2023-02-15T03:30:47.550Z,25.68
2023-02-15T03:33:16.752Z,25.77
2023-02-15T03:36:06.476Z,23.62
2023-02-15T03:38:57.843Z,23.47
2023-02-15T03:41:28.629Z,24.52
2023-02-15T03:44:03.404Z,24.60
2023-02-15T03:46:38.595Z,23.35
2023-02-15T03:49:13.618Z,24.37
2023-02-15T03:51:45.571Z,23.20
2023-02-15T03:54:18.432Z,23.90
2023-02-15T03:56:48.950Z,23.87
2023-02-15T03:59:36.185Z,24.27
2023-02-15T04:02:07.828Z,24.10
2023-02-15T04:04:42.241Z,24.10
2023-02-15T04:07:11.152Z,24.60
2023-02-15T04:09:57.488Z,26.33
2023-02-15T04:12:29.085Z,25.23
2023-02-15T04:15:18.650Z,25.02
2023-02-15T04:17:46.532Z,23.85
2023-02-15T04:20:35.709Z,24.50
2023-02-15T04:23:25.719Z,26.68
2023-02-15T04:25:53.693Z,24.25
2023-02-15T04:28:21.332Z,22.48
2023-02-15T04:30:55.569Z,23.00
2023-02-15T04:33:23.388Z,23.53
2023-02-15T04:35:51.206Z,22.05
2023-02-15T04:38:19.338Z,23.00
2023-02-15T04:40:56.100Z,22.45
2023-02-15T04:43:24.128Z,22.65
2023-02-15T04:45:53.030Z,22.73
2023-02-15T04:48:20.452Z,24.10
2023-02-15T04:50:48.800Z,25.45
2023-02-15T04:53:17.783Z,27.60
2023-02-15T04:55:46.342Z,28.40
2023-02-15T04:58:14.070Z,27.82
2023-02-15T05:00:42.661Z,28.87
2023-02-15T05:03:10.805Z,28.15
2023-02-15T05:05:38.501Z,27.37
2023-02-15T05:08:06.633Z,28.70
2023-02-15T05:10:34.807Z,29.40
2023-02-15T05:13:02.722Z,31.77
2023-02-15T05:15:31.108Z,30.92
2023-02-15T05:17:58.893Z,30.88
2023-02-15T05:20:27.053Z,32.50
2023-02-15T05:22:57.525Z,34.38
2023-02-15T05:25:45.298Z,36.38
2023-02-15T05:28:24.706Z,31.68
2023-02-15T05:31:08.820Z,33.98
2023-02-15T05:33:37.222Z,33.37
2023-02-15T05:36:06.186Z,33.80
2023-02-15T05:38:34.473Z,33.70
2023-02-15T05:41:02.477Z,35.23
2023-02-15T05:43:30.350Z,34.27
2023-02-15T05:45:58.164Z,34.83
2023-02-15T05:48:27.758Z,34.95
2023-02-15T05:51:02.405Z,33.70
2023-02-15T05:53:31.725Z,33.28
2023-02-15T05:56:04.500Z,32.73
2023-02-15T05:58:34.945Z,32.30
2023-02-15T06:01:15.453Z,30.20
2023-02-15T06:03:43.382Z,32.88
2023-02-15T06:06:11.734Z,31.40
2023-02-15T06:08:39.748Z,33.45
2023-02-15T06:11:07.791Z,29.82
2023-02-15T06:13:38.543Z,31.60
2023-02-15T06:16:06.950Z,30.57
2023-02-15T06:18:35.300Z,31.48
2023-02-15T06:21:02.964Z,30.77
2023-02-15T06:23:31.308Z,34.60
2023-02-15T06:25:59.030Z,32.98
2023-02-15T06:28:26.908Z,33.10
2023-02-15T06:30:54.531Z,34.63
2023-02-15T06:33:23.334Z,32.30
2023-02-15T06:35:50.757Z,33.80
2023-02-15T06:38:19.044Z,33.53
2023-02-15T06:40:47.955Z,34.43
2023-02-15T06:43:16.239Z,36.60
2023-02-15T06:45:44.394Z,34.88
2023-02-15T06:48:13.689Z,36.20
2023-02-15T06:50:45.829Z,35.33
2023-02-15T06:53:13.833Z,36.68
2023-02-15T06:55:52.571Z,35.83
2023-02-15T06:58:24.106Z,34.55
2023-02-15T07:00:53.400Z,36.60
2023-02-15T07:03:20.999Z,38.98
2023-02-15T07:05:50.888Z,38.17
2023-02-15T07:08:21.066Z,37.63
2023-02-15T07:10:50.908Z,39.23
2023-02-15T07:13:19.406Z,38.48
2023-02-15T07:15:54.467Z,37.35
2023-02-15T07:18:22.840Z,37.50
2023-02-15T07:20:50.467Z,37.10
2023-02-15T07:23:18.603Z,44.50
2023-02-15T07:25:46.642Z,46.30
2023-02-15T07:28:14.292Z,39.40
2023-02-15T07:30:42.442Z,35.75
2023-02-15T07:33:25.778Z,38.60
2023-02-15T07:36:03.220Z,35.55
2023-02-15T07:38:42.067Z,35.88
2023-02-15T07:41:12.270Z,34.98
2023-02-15T07:43:42.358Z,35.10
2023-02-15T07:46:16.865Z,38.95
2023-02-15T07:48:45.454Z,39.03
2023-02-15T07:51:13.891Z,38.55
2023-02-15T07:53:42.312Z,38.63
2023-02-15T07:56:13.943Z,38.58
2023-02-15T07:58:54.017Z,36.13
2023-02-15T08:01:30.566Z,35.23
2023-02-15T08:03:59.296Z,35.13
2023-02-15T08:06:29.737Z,35.17
2023-02-15T08:09:01.028Z,33.90
2023-02-15T08:11:35.816Z,35.48
2023-02-15T08:14:12.558Z,36.65
2023-02-15T08:16:43.448Z,34.70
2023-02-15T08:19:14.568Z,35.52
2023-02-15T08:21:45.502Z,36.03
2023-02-15T08:24:17.291Z,36.70
2023-02-15T08:26:48.091Z,37.75
2023-02-15T08:29:36.387Z,37.08
2023-02-15T08:32:07.430Z,38.63
2023-02-15T08:34:39.554Z,37.80
2023-02-15T08:37:10.579Z,37.98
2023-02-15T08:39:38.721Z,36.38
2023-02-15T08:42:06.815Z,34.75
2023-02-15T08:44:34.743Z,37.53
2023-02-15T08:47:04.293Z,38.13
2023-02-15T08:49:32.193Z,37.38
2023-02-15T08:52:00.956Z,37.58
2023-02-15T08:54:29.412Z,36.58
2023-02-15T08:56:57.468Z,37.13
2023-02-15T08:59:27.780Z,37.10
2023-02-15T09:01:56.581Z,35.60
2023-02-15T09:04:24.549Z,33.75
2023-02-15T09:06:52.984Z,34.48
2023-02-15T09:09:21.499Z,33.00
2023-02-15T09:11:56.811Z,36.33
2023-02-15T09:14:22.766Z,33.53
2023-02-15T09:16:52.570Z,34.27
2023-02-15T09:19:22.115Z,36.15
2023-02-15T09:21:52.855Z,34.03
2023-02-15T09:24:21.302Z,34.65
2023-02-15T09:26:55.464Z,37.10
2023-02-15T09:29:24.930Z,35.68
2023-02-15T09:31:53.860Z,33.50
2023-02-15T09:34:23.576Z,35.15
2023-02-15T09:36:52.560Z,33.48
2023-02-15T09:39:42.221Z,36.95
2023-02-15T09:42:31.130Z,34.67
2023-02-15T09:45:29.969Z,35.08
2023-02-15T09:48:18.754Z,35.25
2023-02-15T09:51:10.206Z,37.73
2023-02-15T09:53:57.174Z,34.98
2023-02-15T09:56:28.797Z,37.85
2023-02-15T09:59:06.092Z,39.33
2023-02-15T10:01:50.174Z,39.38
2023-02-15T10:04:55.562Z,38.83
2023-02-15T10:07:42.272Z,38.63
2023-02-15T10:10:17.310Z,37.38
2023-02-15T10:12:54.572Z,37.48
2023-02-15T10:15:40.152Z,39.08
2023-02-15T10:20:59.058Z,35.28
2023-02-15T10:23:47.595Z,36.93
2023-02-15T10:26:24.806Z,38.98
2023-02-15T10:28:56.299Z,38.85
2023-02-15T10:31:31.195Z,39.20
2023-02-15T10:34:23.936Z,38.60
2023-02-15T10:37:15.502Z,40.80
2023-02-15T10:39:59.391Z,42.67
2023-02-15T10:42:54.568Z,39.98
2023-02-15T10:45:35.296Z,42.95
2023-02-15T10:48:30.558Z,43.90
2023-02-15T10:51:04.586Z,41.33
2023-02-15T10:53:57.192Z,46.40
2023-02-15T10:56:40.472Z,46.08
2023-02-15T10:59:36.535Z,44.20
2023-02-15T11:02:43.456Z,45.90
2023-02-15T11:05:30.214Z,46.28
2023-02-15T11:08:01.638Z,45.23
2023-02-15T11:10:48.611Z,46.60
2023-02-15T11:13:19.659Z,45.58
2023-02-15T11:15:54.334Z,44.58
2023-02-15T11:18:41.124Z,45.55
2023-02-15T11:21:15.853Z,42.00
2023-02-15T11:23:46.601Z,42.88
2023-02-15T11:26:45.691Z,41.48
2023-02-15T11:29:32.393Z,43.45
2023-02-15T11:32:16.528Z,43.73
2023-02-15T11:35:03.570Z,44.90
2023-02-15T11:37:44.532Z,45.25
2023-02-15T11:40:33.822Z,43.40
2023-02-15T11:43:08.413Z,41.92
2023-02-15T11:45:36.787Z,43.48
2023-02-15T11:48:13.630Z,46.28
2023-02-15T11:50:43.740Z,42.40
2023-02-15T11:53:22.686Z,42.33
2023-02-15T11:58:43.922Z,42.10
2023-02-15T12:01:15.348Z,42.43
2023-02-15T12:03:49.305Z,43.90
2023-02-15T12:06:20.917Z,45.70
2023-02-15T12:09:05.330Z,45.73
2023-02-15T12:11:41.337Z,44.50
2023-02-15T12:14:11.640Z,44.35
2023-02-15T12:16:55.779Z,46.88
2023-02-15T12:19:31.055Z,47.43
2023-02-15T12:22:09.336Z,44.55
2023-02-15T12:24:40.066Z,45.25
2023-02-15T12:27:17.745Z,44.60
2023-02-15T12:29:55.482Z,42.67
2023-02-15T12:32:30.078Z,42.55
2023-02-15T12:35:10.653Z,41.53
2023-02-15T12:37:38.907Z,42.25
2023-02-15T12:40:22.708Z,44.50
2023-02-15T12:42:50.724Z,41.45
2023-02-15T12:45:25.903Z,44.15
2023-02-15T12:48:40.659Z,41.37
2023-02-15T12:51:10.783Z,42.33
2023-02-15T12:53:44.733Z,42.30
2023-02-15T12:56:31.785Z,42.15
2023-02-15T12:59:06.865Z,42.85
2023-02-15T13:04:06.595Z,41.40
2023-02-15T13:06:36.261Z,38.65
2023-02-15T13:09:20.083Z,39.53
2023-02-15T13:11:49.183Z,38.67
2023-02-15T13:14:20.303Z,39.63
2023-02-15T13:16:52.780Z,45.43
2023-02-15T13:19:30.550Z,47.13
2023-02-15T13:22:01.832Z,42.03
2023-02-15T13:24:33.292Z,41.18
2023-02-15T13:27:14.550Z,39.30
2023-02-15T13:29:37.715Z,38.85
2023-02-15T13:34:39.450Z,38.90
2023-02-15T13:37:35.693Z,38.48
2023-02-15T13:40:10.898Z,36.68
2023-02-15T13:42:46.464Z,38.50
2023-02-15T13:45:40.938Z,36.65
2023-02-15T13:48:12.376Z,34.27
2023-02-15T13:50:44.159Z,35.78
2023-02-15T13:53:37.252Z,37.25
2023-02-15T13:56:23.845Z,33.65
2023-02-15T13:59:05.516Z,36.38
2023-02-15T14:01:46.866Z,34.80
2023-02-15T14:04:33.714Z,35.43
2023-02-15T14:07:33.841Z,32.63
2023-02-15T14:10:23.279Z,33.88
2023-02-15T14:13:07.808Z,34.63
2023-02-15T14:15:46.674Z,34.92
2023-02-15T14:18:42.435Z,38.20
2023-02-15T14:21:14.129Z,36.40
2023-02-15T14:24:11.948Z,36.55
2023-02-15T14:26:52.473Z,36.83
2023-02-15T14:29:46.938Z,36.42
2023-02-15T14:32:31.195Z,34.53
2023-02-15T14:35:01.558Z,36.88
2023-02-15T14:37:54.265Z,35.78
2023-02-15T14:40:56.289Z,36.83
2023-02-15T14:43:47.867Z,35.92
2023-02-15T14:46:22.550Z,40.92
2023-02-15T14:51:47.022Z,39.33
2023-02-15T14:57:07.849Z,40.00
2023-02-15T15:00:00.645Z,40.48
2023-02-15T15:02:49.473Z,40.12
2023-02-15T15:05:27.122Z,39.67
2023-02-15T15:07:58.433Z,40.58
2023-02-15T15:10:38.883Z,42.05
2023-02-15T15:13:27.302Z,43.90
2023-02-15T15:15:55.280Z,42.08
2023-02-15T15:18:46.375Z,40.78
2023-02-15T15:21:35.204Z,43.48
2023-02-15T15:24:03.905Z,41.25
2023-02-15T15:26:38.667Z,42.48
2023-02-15T15:29:07.979Z,41.68
2023-02-15T15:31:45.793Z,48.63
2023-02-15T15:34:23.244Z,46.60
2023-02-15T15:37:24.614Z,67.17
2023-02-15T15:39:56.041Z,46.53
2023-02-15T15:42:43.103Z,43.78
2023-02-15T15:45:20.549Z,45.08
2023-02-15T15:48:06.344Z,49.93
2023-02-15T15:50:26.415Z,46.55
2023-02-15T15:53:00.008Z,44.90
2023-02-15T15:55:31.466Z,46.68
2023-02-15T15:58:02.942Z,44.88
2023-02-15T16:00:40.497Z,45.23
2023-02-15T16:03:17.312Z,44.40
2023-02-15T16:05:44.533Z,44.65
2023-02-15T16:08:20.776Z,43.75
2023-02-15T16:10:54.613Z,44.50
2023-02-15T16:13:22.844Z,48.60
2023-02-15T16:15:57.864Z,48.70
2023-02-15T16:18:28.697Z,52.08
2023-02-15T16:21:02.382Z,49.00
2023-02-15T16:23:40.653Z,48.38
2023-02-15T16:26:19.008Z,47.70
2023-02-15T16:28:50.442Z,46.53
2023-02-15T16:31:18.616Z,43.78
2023-02-15T16:33:47.235Z,45.15
2023-02-15T16:36:27.661Z,42.50
2023-02-15T16:39:02.521Z,41.75
2023-02-15T16:41:31.282Z,40.60
2023-02-15T16:44:03.351Z,37.50
2023-02-15T16:46:43.237Z,37.60
2023-02-15T16:49:18.164Z,34.80
2023-02-15T16:51:51.331Z,36.15
2023-02-15T16:54:24.422Z,38.55
2023-02-15T16:56:53.550Z,37.13
2023-02-15T16:59:28.621Z,37.75
2023-02-15T17:01:58.937Z,36.13
2023-02-15T17:04:31.004Z,39.25
2023-02-15T17:07:05.997Z,39.73
2023-02-15T17:09:32.113Z,40.25
2023-02-15T17:12:14.084Z,39.35
2023-02-15T17:14:42.395Z,40.80
2023-02-15T17:17:16.256Z,40.78
2023-02-15T17:19:52.895Z,40.52
2023-02-15T17:22:28.303Z,39.15
2023-02-15T17:25:01.914Z,40.45
2023-02-15T17:27:33.105Z,39.30
2023-02-15T17:30:04.097Z,37.95
2023-02-15T17:32:35.944Z,39.25
2023-02-15T17:35:10.123Z,40.58
2023-02-15T17:37:42.081Z,40.90
2023-02-15T17:40:25.419Z,40.00
2023-02-15T17:42:56.778Z,40.83
2023-02-15T17:45:27.853Z,40.78
2023-02-15T17:47:58.025Z,39.27
2023-02-15T17:50:28.302Z,40.83
2023-02-15T17:52:58.228Z,39.30
2023-02-15T17:55:43.140Z,40.75
2023-02-15T17:58:16.317Z,43.08
2023-02-15T18:01:05.936Z,42.88
2023-02-15T18:03:55.830Z,41.73
2023-02-15T18:06:42.514Z,41.63
2023-02-15T18:09:34.192Z,39.92
2023-02-15T18:12:02.337Z,40.52
2023-02-15T18:14:31.805Z,41.00
2023-02-15T18:17:03.064Z,41.25
2023-02-15T18:19:31.166Z,41.25
2023-02-15T18:21:59.168Z,41.05
2023-02-15T18:24:27.790Z,41.18
2023-02-15T18:26:55.668Z,41.68
2023-02-15T18:29:23.674Z,40.90
2023-02-15T18:34:45.081Z,39.78
2023-02-15T18:37:19.699Z,40.25
2023-02-15T18:39:54.630Z,41.02
2023-02-15T18:42:32.167Z,39.35
2023-02-15T18:45:03.532Z,40.58
2023-02-15T18:47:31.665Z,41.13
2023-02-15T18:49:59.908Z,42.23
2023-02-15T18:52:31.567Z,41.42
2023-02-15T18:55:02.570Z,39.00
2023-02-15T18:57:30.920Z,40.33
2023-02-15T18:59:58.324Z,41.30
2023-02-15T19:02:26.455Z,40.43
2023-02-15T19:04:54.350Z,39.98
2023-02-15T19:07:30.817Z,37.23
2023-02-15T19:10:00.703Z,38.08
2023-02-15T19:12:29.328Z,38.98
2023-02-15T19:14:57.174Z,38.08
2023-02-15T19:17:25.419Z,39.65
2023-02-15T19:19:56.418Z,41.02
2023-02-15T19:22:30.742Z,35.92
2023-02-15T19:25:23.041Z,36.98
2023-02-15T19:27:51.915Z,36.80
2023-02-15T19:30:23.684Z,37.83
2023-02-15T19:32:52.040Z,41.48
2023-02-15T19:35:26.376Z,43.60
2023-02-15T19:37:56.961Z,41.83
2023-02-15T19:40:28.609Z,39.95
2023-02-15T19:42:56.470Z,34.78
2023-02-15T19:45:26.610Z,34.45
2023-02-15T19:47:56.391Z,34.60
2023-02-15T19:50:36.845Z,33.35
2023-02-15T19:53:11.526Z,31.73
2023-02-15T19:55:56.049Z,32.50
2023-02-15T19:58:27.642Z,33.00
2023-02-15T20:00:59.029Z,30.00
2023-02-15T20:03:30.479Z,30.08
2023-02-15T20:11:35.625Z,33.30
2023-02-15T20:14:04.044Z,32.28
2023-02-15T20:16:32.689Z,32.73
2023-02-15T20:19:00.551Z,30.97
2023-02-15T20:24:23.538Z,30.43
2023-02-15T20:26:54.506Z,29.85
2023-02-15T20:29:25.323Z,31.55
2023-02-15T20:34:56.088Z,30.72
2023-02-15T20:37:34.144Z,32.05
2023-02-15T20:48:28.033Z,31.05
2023-02-15T20:51:07.001Z,31.73
2023-02-15T20:53:38.156Z,31.40
2023-02-15T20:56:21.120Z,32.10
2023-02-15T20:58:51.047Z,32.78
2023-02-15T21:01:35.850Z,34.20
2023-02-15T21:04:11.333Z,32.50
2023-02-15T21:06:54.282Z,32.03
2023-02-15T21:12:20.997Z,32.42
2023-02-15T21:17:34.186Z,31.48
2023-02-15T21:20:03.518Z,33.10
2023-02-15T21:22:32.606Z,33.92
2023-02-15T21:25:02.619Z,32.42
2023-02-15T21:27:30.669Z,34.45
2023-02-15T21:29:59.535Z,31.60
2023-02-15T21:32:27.090Z,30.32
2023-02-15T21:35:07.334Z,31.55
2023-02-15T21:37:39.559Z,30.60
2023-02-15T21:40:17.140Z,30.43
2023-02-15T21:43:02.228Z,28.65
2023-02-15T21:45:48.695Z,27.48
2023-02-15T21:48:16.781Z,26.35
2023-02-15T21:51:03.563Z,27.05
2023-02-15T21:53:34.916Z,28.00
2023-02-15T21:58:58.762Z,27.27
2023-02-15T22:01:29.051Z,25.50
2023-02-15T22:03:59.479Z,25.55
2023-02-15T22:06:27.675Z,28.07
2023-02-15T22:08:58.453Z,26.77
2023-02-15T22:11:31.955Z,27.00
2023-02-15T22:14:00.215Z,27.58
2023-02-15T22:16:30.542Z,26.37
2023-02-15T22:18:58.095Z,27.48
2023-02-15T22:21:26.869Z,27.42
2023-02-15T22:23:57.959Z,27.25
2023-02-15T22:26:41.287Z,26.35
2023-02-15T22:29:12.819Z,25.77
2023-02-15T22:31:44.192Z,26.17
2023-02-15T22:34:18.487Z,24.92
2023-02-15T22:36:47.536Z,25.52
2023-02-15T22:39:16.929Z,27.13
2023-02-15T22:41:45.216Z,25.27
2023-02-15T22:44:14.077Z,24.30
2023-02-15T22:46:41.640Z,23.80
2023-02-15T22:49:30.077Z,24.43
2023-02-15T22:51:57.973Z,23.70
2023-02-15T22:54:25.676Z,24.15
2023-02-15T22:56:54.347Z,24.10
2023-02-15T22:59:29.470Z,21.73
2023-02-15T23:01:57.724Z,22.60
2023-02-15T23:04:28.146Z,22.22
2023-02-15T23:06:58.895Z,21.82
2023-02-15T23:09:26.591Z,24.35
2023-02-15T23:11:54.809Z,27.15
2023-02-15T23:14:26.393Z,35.17
2023-02-15T23:16:57.714Z,34.55
2023-02-15T23:19:25.872Z,27.45
2023-02-15T23:21:54.492Z,29.32
2023-02-15T23:24:28.765Z,29.95
2023-02-15T23:27:02.100Z,29.05
2023-02-15T23:29:30.602Z,32.23
2023-02-15T23:31:59.072Z,29.90
2023-02-15T23:34:31.005Z,30.95
2023-02-15T23:37:00.284Z,28.35
2023-02-15T23:39:47.988Z,27.98
2023-02-15T23:42:21.979Z,28.50
2023-02-15T23:44:50.079Z,29.07
2023-02-15T23:47:54.445Z,29.65
2023-02-15T23:50:25.070Z,27.13
2023-02-15T23:52:53.671Z,27.55
2023-02-15T23:58:15.281Z,29.23
